Time;durP1;ratioP1;P1;durP2;ratioP2;P2;SDS_P1;SDS_P2;PMS_P1;PMS_P2;Temp;Humidity;BMP_temperature;BMP_pressure;BME280_temperature;BME280_humidity;BME280_pressure;Samples;Min_cycle;Max_cycle;Signal;HPM_P1;HPM_P2
2021/07/25 00:00:44;;;;;;;4.75;3.03;;;20.40;99.90;;;;;;4943003;29;20186;-75
2021/07/25 00:03:10;;;;;;;5.30;4.13;;;20.30;99.90;;;;;;4935508;29;20201;-75
2021/07/25 00:05:39;;;;;;;4.45;3.10;;;20.20;99.90;;;;;;4934900;28;20304;-76
2021/07/25 00:08:04;;;;;;;5.15;3.15;;;20.20;99.90;;;;;;4941119;28;20189;-75
2021/07/25 00:10:30;;;;;;;4.43;3.08;;;20.10;99.90;;;;;;4938652;28;20292;-76
2021/07/25 00:12:55;;;;;;;3.95;2.78;;;20.00;99.90;;;;;;4934974;29;20675;-76
2021/07/25 00:15:22;;;;;;;5.03;2.78;;;20.00;99.90;;;;;;4933643;29;20214;-76
2021/07/25 00:17:48;;;;;;;4.10;3.13;;;20.00;99.90;;;;;;4939721;29;20550;-75
2021/07/25 00:20:14;;;;;;;3.78;2.80;;;20.00;99.90;;;;;;4935524;28;20194;-75
2021/07/25 00:22:40;;;;;;;3.47;2.85;;;20.00;99.90;;;;;;4938098;29;20715;-75
2021/07/25 00:25:12;;;;;;;7.50;3.65;;;19.90;99.90;;;;;;4933730;29;20230;-75
2021/07/25 00:27:42;;;;;;;4.38;3.30;;;19.90;99.90;;;;;;4934036;28;20185;-75
2021/07/25 00:30:12;;;;;;;5.47;2.97;;;19.90;99.90;;;;;;4935486;29;20296;-75
2021/07/25 00:32:41;;;;;;;6.32;3.78;;;19.90;99.90;;;;;;4933217;29;20197;-76
2021/07/25 00:35:07;;;;;;;3.50;3.05;;;19.80;99.90;;;;;;4936774;28;20237;-75
2021/07/25 00:37:33;;;;;;;4.80;2.95;;;19.80;99.90;;;;;;4931390;29;20266;-76
2021/07/25 00:39:59;;;;;;;3.20;2.80;;;19.80;99.90;;;;;;4932281;29;20444;-76
2021/07/25 00:42:24;;;;;;;5.43;3.28;;;19.80;99.90;;;;;;4937483;29;20185;-76
2021/07/25 00:44:50;;;;;;;2.88;2.38;;;19.80;99.90;;;;;;4932259;28;20204;-76
2021/07/25 00:47:17;;;;;;;3.90;3.28;;;19.80;99.90;;;;;;4933058;29;20764;-76
2021/07/25 00:49:42;;;;;;;3.95;3.08;;;19.90;99.90;;;;;;4935662;29;20186;-75
2021/07/25 00:52:08;;;;;;;3.30;2.63;;;19.90;99.90;;;;;;4930760;29;20177;-75
2021/07/25 00:54:38;;;;;;;3.20;2.83;;;19.90;99.90;;;;;;4931389;28;20193;-75
2021/07/25 00:57:03;;;;;;;3.63;2.97;;;19.80;99.90;;;;;;4935406;29;20612;-76
2021/07/25 00:59:29;;;;;;;3.38;2.53;;;20.00;99.90;;;;;;4935432;29;20265;-74
2021/07/25 01:01:54;;;;;;;3.45;2.90;;;19.90;99.90;;;;;;4933567;29;20177;-75
2021/07/25 01:04:41;;;;;;;4.95;3.38;;;19.90;99.90;;;;;;4933678;29;20232;-75
2021/07/25 01:07:26;;;;;;;4.05;2.90;;;19.90;99.90;;;;;;4943464;28;20594;-75
2021/07/25 01:10:17;;;;;;;3.78;2.60;;;19.80;99.90;;;;;;4956231;28;20213;-76
2021/07/25 01:13:08;;;;;;;3.20;2.72;;;19.70;99.90;;;;;;4943728;28;20188;-76
2021/07/25 01:15:34;;;;;;;4.00;2.60;;;19.80;99.90;;;;;;4939540;29;20221;-75
2021/07/25 01:18:00;;;;;;;3.17;2.58;;;19.70;99.90;;;;;;4943492;28;20710;-76
2021/07/25 01:20:26;;;;;;;3.08;2.53;;;19.70;99.90;;;;;;4941232;28;20200;-76
2021/07/25 01:22:54;;;;;;;3.90;2.75;;;19.60;99.90;;;;;;4943032;28;20186;-76
2021/07/25 01:25:22;;;;;;;3.25;2.72;;;19.60;99.90;;;;;;4941608;28;20217;-76
2021/07/25 01:28:13;;;;;;;3.28;2.60;;;19.70;99.90;;;;;;4941646;29;20212;-75
2021/07/25 01:30:41;;;;;;;3.60;2.70;;;19.70;99.90;;;;;;4941132;29;20224;-76
2021/07/25 01:33:12;;;;;;;3.95;2.80;;;19.70;99.90;;;;;;4941321;28;20193;-76
2021/07/25 01:35:40;;;;;;;5.05;2.72;;;19.70;99.90;;;;;;4941028;28;20224;-76
2021/07/25 01:38:09;;;;;;;3.58;3.05;;;19.70;99.90;;;;;;4945628;29;20178;-77
2021/07/25 01:40:35;;;;;;;2.92;2.40;;;19.70;99.90;;;;;;4940487;28;20714;-76
2021/07/25 01:43:00;;;;;;;6.60;3.13;;;19.70;99.90;;;;;;4942480;29;20198;-76
2021/07/25 01:45:26;;;;;;;3.05;2.50;;;19.70;99.90;;;;;;4943209;28;20213;-76
2021/07/25 01:47:52;;;;;;;3.35;2.75;;;19.70;99.90;;;;;;4940323;28;20198;-77
2021/07/25 01:50:17;;;;;;;4.55;2.90;;;19.70;99.90;;;;;;4945278;28;20213;-76
2021/07/25 01:52:44;;;;;;;3.22;2.53;;;19.80;99.90;;;;;;4943643;28;20216;-76
2021/07/25 01:55:10;;;;;;;3.15;2.40;;;19.70;99.90;;;;;;4940018;28;20625;-77
2021/07/25 01:57:35;;;;;;;3.88;3.03;;;19.70;99.90;;;;;;4942272;28;20268;-76
2021/07/25 02:00:03;;;;;;;4.68;2.97;;;19.70;99.90;;;;;;4942056;28;20665;-76
2021/07/25 02:02:29;;;;;;;3.92;3.03;;;19.60;99.90;;;;;;4941276;29;20558;-75
2021/07/25 02:04:54;;;;;;;4.28;3.10;;;19.60;99.90;;;;;;4943624;28;20263;-76
2021/07/25 02:07:20;;;;;;;3.17;2.85;;;19.60;99.90;;;;;;4944422;29;20967;-76
2021/07/25 02:09:45;;;;;;;3.75;3.05;;;19.50;99.90;;;;;;4943002;28;20319;-76
2021/07/25 02:12:11;;;;;;;4.05;2.90;;;19.50;99.90;;;;;;4943521;28;20200;-76
2021/07/25 02:14:39;;;;;;;3.83;3.20;;;19.50;99.90;;;;;;4939382;28;20217;-77
2021/07/25 02:17:07;;;;;;;3.50;2.95;;;19.40;99.90;;;;;;4941691;28;20660;-77
2021/07/25 02:19:33;;;;;;;6.07;3.65;;;19.30;99.90;;;;;;4937213;28;20194;-76
2021/07/25 02:21:58;;;;;;;5.03;3.03;;;19.20;99.90;;;;;;4937846;29;20281;-76
2021/07/25 02:24:25;;;;;;;4.00;3.00;;;19.10;99.90;;;;;;4936098;29;20194;-76
2021/07/25 02:26:51;;;;;;;5.10;3.15;;;19.10;99.90;;;;;;4939386;28;20652;-76
2021/07/25 02:29:16;;;;;;;4.07;3.08;;;19.00;99.90;;;;;;4938352;29;20198;-76
2021/07/25 02:31:42;;;;;;;3.20;2.63;;;19.00;99.90;;;;;;4938703;29;20214;-75
2021/07/25 02:34:08;;;;;;;4.18;3.35;;;18.90;99.90;;;;;;4938286;28;20217;-76
2021/07/25 02:36:34;;;;;;;5.10;3.33;;;18.90;99.90;;;;;;4936032;28;20237;-75
2021/07/25 02:39:00;;;;;;;4.72;3.38;;;18.70;99.90;;;;;;4939012;29;20594;-76
2021/07/25 02:41:26;;;;;;;5.28;3.80;;;18.60;99.90;;;;;;4940458;29;20217;-76
2021/07/25 02:43:51;;;;;;;6.05;3.50;;;18.60;99.90;;;;;;4937755;29;20257;-76
2021/07/25 02:46:17;;;;;;;4.53;3.67;;;18.60;99.90;;;;;;4938466;28;20261;-76
2021/07/25 02:48:43;;;;;;;4.15;3.40;;;18.50;99.90;;;;;;4940187;29;20193;-77
2021/07/25 02:51:08;;;;;;;3.95;2.95;;;18.50;99.90;;;;;;4941462;28;20209;-76
2021/07/25 02:53:34;;;;;;;4.35;2.92;;;18.40;99.90;;;;;;4936199;28;20190;-76
2021/07/25 02:56:00;;;;;;;4.25;3.33;;;18.40;99.90;;;;;;4937732;28;20803;-76
2021/07/25 02:58:25;;;;;;;4.22;3.58;;;18.40;99.90;;;;;;4938248;28;20245;-76
2021/07/25 03:00:51;;;;;;;6.30;3.70;;;18.30;99.90;;;;;;4938877;28;20221;-76
2021/07/25 03:03:16;;;;;;;4.10;3.28;;;18.20;99.90;;;;;;4941006;28;20194;-76
2021/07/25 03:05:42;;;;;;;4.32;3.70;;;18.20;99.90;;;;;;4937305;29;20225;-76
2021/07/25 03:08:07;;;;;;;5.05;3.20;;;18.40;99.90;;;;;;4941766;28;20285;-75
2021/07/25 03:10:33;;;;;;;5.63;3.67;;;18.50;99.90;;;;;;4940448;28;20206;-76
2021/07/25 03:12:59;;;;;;;4.28;3.28;;;18.50;99.90;;;;;;4938471;29;20187;-77
2021/07/25 03:15:24;;;;;;;4.57;3.40;;;18.50;99.90;;;;;;4939016;28;20701;-79
2021/07/25 03:17:52;;;;;;;5.35;2.95;;;18.30;99.90;;;;;;4937407;29;20191;-76
2021/07/25 03:20:18;;;;;;;4.07;2.92;;;18.20;99.90;;;;;;4938850;29;20186;-78
2021/07/25 03:22:43;;;;;;;4.05;2.80;;;18.10;99.90;;;;;;4939648;29;20214;-77
2021/07/25 03:25:10;;;;;;;7.30;3.38;;;17.90;99.90;;;;;;4938909;28;20217;-79
2021/07/25 03:27:35;;;;;;;5.22;3.20;;;17.90;99.90;;;;;;4938358;29;20187;-77
2021/07/25 03:30:02;;;;;;;6.75;3.50;;;17.90;99.90;;;;;;4938053;29;20219;-77
2021/07/25 03:32:27;;;;;;;4.47;3.13;;;17.90;99.90;;;;;;4935022;29;20249;-76
2021/07/25 03:34:53;;;;;;;5.40;3.75;;;17.90;99.90;;;;;;4936100;28;20210;-77
2021/07/25 03:37:19;;;;;;;4.03;2.78;;;17.90;99.90;;;;;;4935081;29;20201;-77
2021/07/25 03:39:49;;;;;;;6.03;3.38;;;18.00;99.90;;;;;;4939357;29;20178;-77
2021/07/25 03:42:15;;;;;;;4.63;3.17;;;17.90;99.90;;;;;;4935989;29;20272;-77
2021/07/25 03:44:41;;;;;;;5.43;3.85;;;17.90;99.90;;;;;;4937870;29;20213;-76
2021/07/25 03:47:08;;;;;;;6.28;3.15;;;17.80;99.90;;;;;;4934835;29;20185;-77
2021/07/25 03:49:33;;;;;;;7.43;3.00;;;17.80;99.90;;;;;;4937598;29;20194;-77
2021/07/25 03:51:59;;;;;;;6.13;3.67;;;17.80;99.90;;;;;;4935648;29;20183;-76
2021/07/25 03:54:24;;;;;;;3.78;2.85;;;17.80;99.90;;;;;;4938323;28;20182;-76
2021/07/25 03:56:50;;;;;;;9.50;3.63;;;17.90;99.90;;;;;;4938724;29;20386;-77
2021/07/25 03:59:16;;;;;;;4.95;3.45;;;17.90;99.90;;;;;;4937928;29;20652;-76
2021/07/25 04:01:42;;;;;;;7.45;3.28;;;17.90;99.90;;;;;;4939074;28;20368;-76
2021/07/25 04:04:07;;;;;;;4.35;3.10;;;17.90;99.90;;;;;;4938133;28;20853;-76
2021/07/25 04:06:33;;;;;;;5.35;3.45;;;18.00;99.90;;;;;;4936711;29;20217;-77
2021/07/25 04:08:59;;;;;;;3.72;3.22;;;18.00;99.90;;;;;;4939096;29;20190;-77
2021/07/25 04:11:25;;;;;;;4.72;3.65;;;18.00;99.90;;;;;;4935816;29;21054;-77
2021/07/25 04:13:50;;;;;;;4.28;3.53;;;18.00;99.90;;;;;;4951885;28;20449;-77
2021/07/25 04:16:17;;;;;;;3.58;3.10;;;18.00;99.90;;;;;;4938173;28;20711;-77
2021/07/25 04:18:42;;;;;;;4.55;3.47;;;18.00;99.90;;;;;;4938336;29;20194;-77
2021/07/25 04:21:08;;;;;;;3.97;3.42;;;18.00;99.90;;;;;;4936966;29;20200;-78
2021/07/25 04:23:34;;;;;;;3.75;3.13;;;17.90;99.90;;;;;;4938274;29;20280;-77
2021/07/25 04:25:59;;;;;;;3.85;3.45;;;17.90;99.90;;;;;;4936972;28;20711;-78
2021/07/25 04:28:25;;;;;;;7.88;3.40;;;17.90;99.90;;;;;;4938057;28;20219;-77
2021/07/25 04:30:51;;;;;;;4.60;3.28;;;18.10;99.90;;;;;;4935780;29;20214;-77
2021/07/25 04:33:19;;;;;;;5.18;3.67;;;18.10;99.90;;;;;;4938455;29;20287;-77
2021/07/25 04:35:46;;;;;;;5.00;3.80;;;18.00;99.90;;;;;;4937613;28;20208;-76
2021/07/25 04:38:11;;;;;;;5.60;3.45;;;18.00;99.90;;;;;;4937804;28;20241;-77
2021/07/25 04:40:39;;;;;;;12.10;3.70;;;17.80;99.90;;;;;;4935793;28;20610;-77
2021/07/25 04:43:07;;;;;;;5.90;4.38;;;17.80;99.90;;;;;;4937480;28;20189;-77
2021/07/25 04:45:47;;;;;;;5.15;3.42;;;17.80;99.90;;;;;;4937222;28;20219;-77
2021/07/25 04:48:22;;;;;;;5.30;3.83;;;17.80;99.90;;;;;;4935936;28;20189;-77
2021/07/25 04:50:53;;;;;;;5.68;3.88;;;17.90;99.90;;;;;;4936718;29;20209;-77
2021/07/25 04:53:28;;;;;;;5.38;4.05;;;18.00;99.90;;;;;;4937392;29;20268;-77
2021/07/25 04:56:01;;;;;;;5.07;4.05;;;18.20;99.90;;;;;;4934959;29;20205;-76
2021/07/25 04:58:42;;;;;;;6.20;3.70;;;18.20;99.90;;;;;;4936642;29;20719;-77
2021/07/25 05:01:13;;;;;;;4.82;3.47;;;18.40;99.90;;;;;;4934377;29;20192;-77
2021/07/25 05:03:39;;;;;;;6.50;3.92;;;18.50;99.90;;;;;;4935528;29;20510;-77
2021/07/25 05:06:10;;;;;;;5.55;3.75;;;18.60;99.90;;;;;;4935521;28;20213;-77
2021/07/25 05:08:36;;;;;;;5.65;4.40;;;18.80;99.90;;;;;;4939217;29;20197;-77
2021/07/25 05:11:20;;;;;;;5.78;4.32;;;18.80;99.90;;;;;;4937680;29;20313;-77
2021/07/25 05:13:51;;;;;;;6.00;4.57;;;18.80;99.90;;;;;;4936887;29;20182;-77
2021/07/25 05:16:26;;;;;;;7.15;4.50;;;18.80;99.90;;;;;;4935567;28;20222;-77
2021/07/25 05:19:15;;;;;;;6.72;4.45;;;18.90;99.90;;;;;;4937069;29;20197;-77
2021/07/25 05:21:43;;;;;;;6.15;3.90;;;19.00;99.90;;;;;;4935050;29;20815;-77
2021/07/25 05:24:09;;;;;;;7.43;4.53;;;19.10;99.90;;;;;;4938695;29;20536;-77
2021/07/25 05:26:36;;;;;;;6.00;4.32;;;19.80;99.90;;;;;;4934749;29;20213;-77
2021/07/25 05:29:03;;;;;;;5.45;4.53;;;21.00;99.90;;;;;;4938971;29;20186;-77
2021/07/25 05:31:31;;;;;;;5.57;4.22;;;22.30;99.90;;;;;;4935855;29;20214;-78
2021/07/25 05:33:57;;;;;;;4.80;3.60;;;23.40;99.90;;;;;;4935573;29;21221;-78
2021/07/25 05:36:22;;;;;;;5.38;4.32;;;23.60;99.90;;;;;;4936109;28;20213;-77
2021/07/25 05:38:48;;;;;;;7.95;4.88;;;23.90;99.90;;;;;;4926299;28;20573;-77
2021/07/25 05:41:13;;;;;;;6.68;5.15;;;24.30;99.90;;;;;;4937328;28;20212;-78
2021/07/25 05:43:39;;;;;;;7.22;4.03;;;24.80;99.90;;;;;;4937746;28;20202;-78
2021/07/25 05:46:05;;;;;;;8.10;5.30;;;25.30;99.90;;;;;;4934169;28;20209;-78
2021/07/25 05:48:30;;;;;;;7.13;4.40;;;25.70;99.90;;;;;;4932963;28;20186;-78
2021/07/25 05:50:56;;;;;;;6.65;4.90;;;26.20;99.90;;;;;;4934633;28;20202;-78
2021/07/25 05:53:21;;;;;;;5.40;4.55;;;26.30;99.90;;;;;;4937302;29;20638;-78
2021/07/25 05:55:47;;;;;;;5.35;4.32;;;26.30;99.90;;;;;;4937864;29;20213;-78
2021/07/25 05:58:13;;;;;;;8.95;4.88;;;26.30;99.90;;;;;;4941571;29;20726;-78
2021/07/25 06:00:38;;;;;;;7.00;4.80;;;26.20;99.90;;;;;;4939877;29;20194;-77
2021/07/25 06:03:04;;;;;;;7.78;5.32;;;25.90;99.90;;;;;;4942271;28;20223;-77
2021/07/25 06:05:32;;;;;;;6.97;5.55;;;25.70;99.90;;;;;;4938355;29;20205;-77
2021/07/25 06:07:59;;;;;;;7.18;4.70;;;25.50;99.90;;;;;;4935441;29;20186;-77
2021/07/25 06:10:28;;;;;;;6.63;4.90;;;25.30;99.90;;;;;;4940736;29;20213;-78
2021/07/25 06:13:01;;;;;;;7.88;5.18;;;25.50;99.90;;;;;;4938463;28;20222;-78
2021/07/25 06:15:28;;;;;;;4.90;4.35;;;25.80;99.90;;;;;;4942070;28;20229;-77
2021/07/25 06:17:54;;;;;;;6.03;4.80;;;26.30;99.90;;;;;;4940547;28;20209;-78
2021/07/25 06:20:20;;;;;;;5.95;4.68;;;26.20;99.90;;;;;;4939169;28;20742;-78
2021/07/25 06:22:48;;;;;;;6.53;5.43;;;25.90;99.90;;;;;;4938821;29;20198;-77
2021/07/25 06:25:18;;;;;;;7.20;5.35;;;25.50;99.90;;;;;;4940562;28;20210;-78
2021/07/25 06:27:43;;;;;;;7.75;4.97;;;25.50;99.90;;;;;;4936138;29;20241;-77
2021/07/25 06:30:10;;;;;;;6.32;4.65;;;25.50;99.90;;;;;;4938512;28;20217;-76
2021/07/25 06:32:54;;;;;;;6.30;4.95;;;25.30;99.90;;;;;;4938572;29;20277;-77
2021/07/25 06:35:21;;;;;;;5.68;5.07;;;25.50;99.90;;;;;;4936435;29;20198;-77
2021/07/25 06:37:47;;;;;;;7.13;4.97;;;25.70;99.90;;;;;;4937631;29;20188;-78
2021/07/25 06:40:13;;;;;;;5.85;4.95;;;26.30;99.90;;;;;;4939528;29;20566;-77
2021/07/25 06:42:39;;;;;;;7.13;4.88;;;26.30;99.90;;;;;;4938175;29;20190;-76
2021/07/25 06:45:05;;;;;;;5.55;4.97;;;25.70;99.90;;;;;;4936206;28;20206;-77
2021/07/25 06:47:31;;;;;;;5.85;5.05;;;25.60;99.90;;;;;;4938695;29;20224;-78
2021/07/25 06:49:56;;;;;;;9.20;5.40;;;25.70;99.90;;;;;;4940044;28;20221;-79
2021/07/25 06:52:22;;;;;;;5.65;4.57;;;25.50;99.90;;;;;;4939563;29;20182;-77
2021/07/25 06:54:47;;;;;;;7.95;5.72;;;25.40;99.90;;;;;;4936425;28;20257;-77
2021/07/25 06:57:13;;;;;;;7.13;4.93;;;25.20;99.90;;;;;;4935817;29;20282;-77
2021/07/25 06:59:38;;;;;;;6.38;5.05;;;24.80;99.90;;;;;;4934957;29;20228;-78
2021/07/25 07:02:04;;;;;;;6.60;4.97;;;24.50;99.90;;;;;;4928419;29;20676;-77
2021/07/25 07:04:30;;;;;;;8.00;5.40;;;24.10;99.90;;;;;;4938311;28;20190;-78
2021/07/25 07:06:55;;;;;;;6.20;4.80;;;23.90;99.90;;;;;;4935648;29;20182;-77
2021/07/25 07:09:21;;;;;;;7.40;4.90;;;23.90;99.90;;;;;;4937690;29;20190;-78
2021/07/25 07:11:46;;;;;;;6.65;4.90;;;23.90;99.90;;;;;;4936105;28;20208;-78
2021/07/25 07:14:12;;;;;;;8.63;6.03;;;24.00;99.90;;;;;;4940761;29;20190;-77
2021/07/25 07:16:37;;;;;;;6.22;4.82;;;24.20;99.90;;;;;;4939324;29;20221;-78
2021/07/25 07:19:03;;;;;;;6.57;5.03;;;24.30;99.90;;;;;;4937056;29;20178;-78
2021/07/25 07:21:29;;;;;;;6.90;5.15;;;24.30;99.90;;;;;;4939398;28;20305;-78
2021/07/25 07:23:55;;;;;;;5.28;4.45;;;24.40;99.90;;;;;;4939756;28;20218;-77
2021/07/25 07:26:21;;;;;;;6.32;4.68;;;24.50;99.90;;;;;;4933669;28;20214;-78
2021/07/25 07:28:47;;;;;;;7.95;5.13;;;24.50;99.90;;;;;;4932140;28;20621;-77
2021/07/25 07:31:12;;;;;;;7.10;5.43;;;24.60;99.90;;;;;;4933892;28;20403;-77
2021/07/25 07:33:38;;;;;;;8.07;5.22;;;24.70;99.90;;;;;;4931828;29;20189;-77
2021/07/25 07:36:04;;;;;;;6.35;4.75;;;24.70;99.90;;;;;;4939199;29;20202;-77
2021/07/25 07:38:30;;;;;;;7.45;5.50;;;24.70;99.90;;;;;;4934227;29;20190;-77
2021/07/25 07:40:55;;;;;;;6.53;5.50;;;24.80;99.90;;;;;;4940800;28;20269;-78
2021/07/25 07:43:22;;;;;;;6.10;4.13;;;24.80;99.90;;;;;;4937845;28;20640;-77
2021/07/25 07:45:49;;;;;;;5.82;4.50;;;24.90;99.90;;;;;;4934849;28;20321;-77
2021/07/25 07:48:15;;;;;;;5.43;4.22;;;24.90;99.90;;;;;;4935979;29;20194;-77
2021/07/25 07:50:42;;;;;;;7.70;5.25;;;24.90;99.90;;;;;;4935198;29;20205;-78
2021/07/25 07:53:08;;;;;;;6.43;5.15;;;25.40;99.90;;;;;;4930507;29;20211;-77
2021/07/25 07:55:34;;;;;;;7.70;5.63;;;25.70;99.90;;;;;;4936145;29;20206;-77
2021/07/25 07:57:59;;;;;;;9.65;5.97;;;26.00;99.90;;;;;;4934209;29;20725;-78
2021/07/25 08:00:25;;;;;;;6.18;4.93;;;26.00;99.90;;;;;;4936359;29;20252;-77
2021/07/25 08:02:51;;;;;;;7.43;5.82;;;25.90;99.90;;;;;;4929371;29;20198;-77
2021/07/25 08:05:18;;;;;;;5.00;4.35;;;25.70;99.90;;;;;;4935900;29;20240;-77
2021/07/25 08:07:44;;;;;;;5.65;4.55;;;25.70;99.90;;;;;;4934937;28;20183;-77
2021/07/25 08:10:10;;;;;;;5.57;4.53;;;25.60;99.90;;;;;;4938438;29;20451;-77
2021/07/25 08:12:36;;;;;;;6.75;4.93;;;25.60;99.90;;;;;;4937116;29;20190;-78
2021/07/25 08:15:04;;;;;;;6.20;4.93;;;25.70;99.90;;;;;;4933929;29;20492;-78
2021/07/25 08:17:29;;;;;;;6.15;4.68;;;25.80;99.90;;;;;;4939740;28;20177;-77
2021/07/25 08:19:55;;;;;;;5.93;4.13;;;25.80;99.90;;;;;;4930496;29;20262;-77
2021/07/25 08:22:21;;;;;;;6.38;4.57;;;25.60;99.90;;;;;;4935161;29;20213;-77
2021/07/25 08:24:46;;;;;;;5.38;4.10;;;25.60;99.90;;;;;;4937134;29;20236;-77
2021/07/25 08:27:12;;;;;;;9.32;4.57;;;25.60;99.90;;;;;;4939079;29;20770;-77
2021/07/25 08:29:39;;;;;;;5.93;4.63;;;25.70;99.90;;;;;;4937163;29;20762;-77
2021/07/25 08:32:05;;;;;;;6.00;5.20;;;25.60;99.90;;;;;;4944372;29;20579;-77
2021/07/25 08:34:31;;;;;;;7.10;5.20;;;25.40;99.90;;;;;;4935149;29;20201;-77
2021/07/25 08:36:57;;;;;;;5.40;4.00;;;25.40;99.90;;;;;;4938603;28;20186;-77
2021/07/25 08:39:23;;;;;;;5.57;4.57;;;25.70;99.90;;;;;;4936080;29;20719;-77
2021/07/25 08:42:10;;;;;;;7.43;4.82;;;25.90;99.90;;;;;;4934293;29;20182;-78
2021/07/25 08:44:49;;;;;;;5.53;4.45;;;26.00;99.90;;;;;;4926971;29;20684;-76
2021/07/25 08:47:18;;;;;;;6.38;4.50;;;26.10;99.90;;;;;;4933106;29;20304;-75
2021/07/25 08:50:02;;;;;;;6.57;4.28;;;26.00;99.90;;;;;;4933844;29;20257;-77
2021/07/25 08:52:31;;;;;;;5.65;4.57;;;26.00;99.90;;;;;;4933035;29;20190;-78
2021/07/25 08:54:58;;;;;;;5.32;4.45;;;26.00;99.90;;;;;;4937085;28;20237;-77
2021/07/25 08:57:30;;;;;;;4.90;4.13;;;26.20;99.90;;;;;;4940451;28;20240;-77
2021/07/25 08:59:57;;;;;;;7.00;4.72;;;26.40;99.90;;;;;;4934954;29;20217;-77
2021/07/25 09:02:25;;;;;;;6.43;4.88;;;26.60;99.90;;;;;;4934513;29;20537;-77
2021/07/25 09:04:53;;;;;;;6.55;5.18;;;26.50;99.90;;;;;;4937369;28;21048;-76
2021/07/25 09:07:21;;;;;;;7.32;5.10;;;26.40;99.90;;;;;;4941065;28;20194;-76
2021/07/25 09:09:49;;;;;;;6.50;4.95;;;26.40;99.90;;;;;;4936711;29;20184;-75
2021/07/25 09:12:17;;;;;;;5.53;4.38;;;26.70;99.90;;;;;;4937737;28;20182;-77
2021/07/25 09:14:49;;;;;;;6.20;5.32;;;27.00;99.90;;;;;;4930652;29;21062;-77
2021/07/25 09:17:15;;;;;;;11.05;5.72;;;27.10;99.90;;;;;;4935883;28;20571;-76
2021/07/25 09:20:12;;;;;;;7.30;5.63;;;27.00;99.90;;;;;;4934359;29;20660;-76
2021/07/25 09:22:48;;;;;;;7.90;5.55;;;27.20;99.90;;;;;;4935347;29;20682;-76
2021/07/25 09:25:45;;;;;;;6.70;5.57;;;27.40;99.90;;;;;;4934511;29;20999;-77
2021/07/25 09:28:29;;;;;;;6.88;5.80;;;27.80;99.90;;;;;;4933348;29;20202;-76
2021/07/25 09:30:55;;;;;;;5.80;4.90;;;27.50;99.90;;;;;;4939243;28;20209;-77
2021/07/25 09:33:25;;;;;;;6.32;4.93;;;27.80;99.90;;;;;;4933741;29;20190;-76
2021/07/25 09:35:51;;;;;;;6.55;5.00;;;28.30;99.90;;;;;;4934895;29;20280;-76
2021/07/25 09:38:17;;;;;;;6.38;4.68;;;28.70;99.90;;;;;;4941504;29;20188;-76
2021/07/25 09:40:45;;;;;;;5.07;4.45;;;29.00;99.90;;;;;;4939154;28;20698;-77
2021/07/25 09:43:12;;;;;;;7.97;4.85;;;28.80;99.90;;;;;;4940058;28;20288;-77
2021/07/25 09:45:47;;;;;;;7.80;4.65;;;28.50;99.90;;;;;;4938999;28;20497;-77
2021/07/25 09:48:13;;;;;;;5.38;4.32;;;28.30;99.90;;;;;;4941905;29;20557;-78
2021/07/25 09:50:39;;;;;;;5.65;4.78;;;28.10;99.90;;;;;;4934799;28;20280;-79
2021/07/25 09:53:04;;;;;;;6.72;4.22;;;28.20;99.90;;;;;;4935729;29;20178;-77
2021/07/25 09:55:31;;;;;;;5.13;4.07;;;27.90;99.90;;;;;;4943400;28;20723;-78
2021/07/25 09:57:56;;;;;;;4.57;4.10;;;28.00;99.90;;;;;;4937460;29;20178;-78
2021/07/25 10:00:23;;;;;;;7.80;4.60;;;28.20;99.90;;;;;;4942309;28;20209;-79
2021/07/25 10:02:49;;;;;;;4.53;4.13;;;28.00;99.90;;;;;;4934287;29;20183;-75
2021/07/25 10:05:22;;;;;;;4.55;4.00;;;27.60;99.90;;;;;;4938329;28;20228;-78
2021/07/25 10:07:48;;;;;;;4.50;3.53;;;27.50;99.90;;;;;;4952482;28;20198;-79
2021/07/25 10:10:18;;;;;;;4.45;3.53;;;27.70;99.90;;;;;;4939628;29;20214;-78
2021/07/25 10:12:46;;;;;;;4.80;4.22;;;27.90;99.90;;;;;;4936451;29;20189;-78
2021/07/25 10:15:16;;;;;;;9.57;4.43;;;28.20;99.90;;;;;;4930592;29;20654;-78
2021/07/25 10:17:43;;;;;;;5.55;4.40;;;28.30;99.90;;;;;;4943333;29;20552;-78
2021/07/25 10:20:16;;;;;;;5.57;4.38;;;28.30;99.90;;;;;;4938353;28;20707;-78
2021/07/25 10:22:46;;;;;;;6.25;5.00;;;28.40;99.90;;;;;;4939298;29;20193;-77
2021/07/25 10:25:15;;;;;;;5.30;4.45;;;28.70;99.90;;;;;;4933893;28;20210;-78
2021/07/25 10:27:44;;;;;;;5.10;4.60;;;28.60;99.90;;;;;;4934764;29;20221;-77
2021/07/25 10:30:11;;;;;;;6.35;4.53;;;28.60;99.90;;;;;;4942591;28;20478;-77
2021/07/25 10:32:38;;;;;;;4.93;3.75;;;28.40;99.90;;;;;;4936083;28;20245;-78
2021/07/25 10:35:06;;;;;;;5.85;4.22;;;28.40;99.90;;;;;;4939671;28;20229;-77
2021/07/25 10:37:35;;;;;;;5.82;4.15;;;28.60;99.90;;;;;;4936903;29;20194;-78
2021/07/25 10:40:02;;;;;;;4.70;4.15;;;28.70;99.90;;;;;;4938056;29;20185;-77
2021/07/25 10:42:30;;;;;;;5.75;4.10;;;28.30;99.90;;;;;;4934542;28;20566;-76
2021/07/25 10:44:56;;;;;;;5.45;4.72;;;28.10;99.90;;;;;;4936660;28;20669;-79
2021/07/25 10:47:27;;;;;;;6.18;4.35;;;28.20;99.90;;;;;;4933815;29;20246;-77
2021/07/25 10:49:58;;;;;;;4.25;3.67;;;28.30;99.90;;;;;;4934475;29;20277;-77
2021/07/25 10:52:24;;;;;;;4.82;4.20;;;28.20;99.90;;;;;;4933972;28;20179;-77
2021/07/25 10:54:50;;;;;;;6.43;4.63;;;28.30;99.90;;;;;;4938905;28;20209;-77
2021/07/25 10:57:17;;;;;;;5.45;4.05;;;28.30;99.90;;;;;;4942344;29;20893;-77
2021/07/25 10:59:47;;;;;;;6.55;5.40;;;28.60;99.90;;;;;;4938551;28;20241;-77
2021/07/25 11:02:22;;;;;;;5.63;5.05;;;29.10;99.90;;;;;;4935846;29;20403;-79
2021/07/25 11:04:52;;;;;;;5.68;4.57;;;29.50;99.90;;;;;;4937209;29;20718;-78
2021/07/25 11:07:24;;;;;;;6.28;4.53;;;29.70;99.90;;;;;;4937418;29;20272;-76
2021/07/25 11:09:58;;;;;;;6.15;4.63;;;29.90;99.90;;;;;;4933757;29;20516;-81
2021/07/25 11:12:23;;;;;;;4.47;4.07;;;30.10;99.90;;;;;;4938626;28;20292;-80
2021/07/25 11:14:55;;;;;;;6.97;4.88;;;30.30;99.90;;;;;;4936193;28;20240;-79
2021/07/25 11:17:46;;;;;;;4.53;3.90;;;30.20;99.90;;;;;;4937326;28;20200;-78
2021/07/25 11:20:30;;;;;;;5.40;4.82;;;30.30;99.90;;;;;;4940197;29;20249;-78
2021/07/25 11:22:55;;;;;;;6.60;4.18;;;30.30;99.90;;;;;;4933093;29;20189;-78
2021/07/25 11:25:35;;;;;;;4.60;4.15;;;29.90;99.90;;;;;;4932428;29;20218;-78
2021/07/25 11:28:02;;;;;;;6.47;4.63;;;30.10;99.90;;;;;;4935377;28;20221;-78
2021/07/25 11:30:53;;;;;;;4.88;4.03;;;29.90;99.90;;;;;;4936861;28;20214;-78
2021/07/25 11:33:37;;;;;;;6.60;4.88;;;29.60;99.90;;;;;;4938144;28;20430;-78
2021/07/25 11:36:04;;;;;;;4.45;3.83;;;29.10;99.90;;;;;;4931996;28;20205;-78
2021/07/25 11:38:32;;;;;;;4.60;4.03;;;28.80;99.90;;;;;;4936010;29;20189;-77
2021/07/25 11:40:57;;;;;;;5.10;4.47;;;28.30;99.90;;;;;;4932444;29;20392;-78
2021/07/25 11:43:23;;;;;;;4.82;4.18;;;28.20;99.90;;;;;;4932961;28;20570;-78
2021/07/25 11:45:49;;;;;;;5.90;4.10;;;28.20;99.90;;;;;;4937389;29;20209;-78
2021/07/25 11:48:21;;;;;;;6.35;4.53;;;28.30;99.90;;;;;;4933165;29;20285;-77
2021/07/25 11:50:47;;;;;;;5.85;4.30;;;28.40;99.90;;;;;;4931352;29;20525;-78
2021/07/25 11:53:13;;;;;;;4.97;4.20;;;29.00;99.90;;;;;;4937674;28;20687;-78
2021/07/25 11:55:39;;;;;;;5.05;4.53;;;29.20;99.90;;;;;;4931644;28;20537;-78
2021/07/25 11:58:12;;;;;;;6.40;4.30;;;29.60;99.90;;;;;;4936559;29;20209;-77
2021/07/25 12:00:38;;;;;;;6.00;4.47;;;29.70;99.90;;;;;;4935314;28;20568;-78
2021/07/25 12:03:04;;;;;;;6.82;4.45;;;29.60;99.90;;;;;;4936863;29;20245;-78
2021/07/25 12:05:30;;;;;;;5.75;4.80;;;29.70;99.90;;;;;;4937483;28;20442;-78
2021/07/25 12:07:55;;;;;;;4.90;4.40;;;29.70;99.90;;;;;;4936193;29;20186;-78
2021/07/25 12:10:31;;;;;;;4.88;4.32;;;29.40;99.90;;;;;;4936424;29;20220;-78
2021/07/25 12:13:04;;;;;;;5.75;4.32;;;28.90;99.90;;;;;;4938418;29;20601;-78
2021/07/25 12:15:31;;;;;;;6.80;4.25;;;28.90;99.90;;;;;;4934831;28;20225;-78
2021/07/25 12:17:57;;;;;;;4.72;4.15;;;29.00;99.90;;;;;;4931421;29;20246;-78
2021/07/25 12:20:33;;;;;;;5.72;4.75;;;29.20;99.90;;;;;;4942675;29;20186;-78
2021/07/25 12:23:02;;;;;;;5.90;4.80;;;29.50;99.90;;;;;;4933113;29;20186;-78
2021/07/25 12:25:32;;;;;;;5.28;4.78;;;30.00;99.90;;;;;;4937689;28;20224;-78
2021/07/25 12:28:07;;;;;;;5.30;4.70;;;30.30;99.90;;;;;;4938359;29;20185;-79
2021/07/25 12:30:46;;;;;;;7.20;4.68;;;30.00;99.90;;;;;;4930659;29;20218;-78
2021/07/25 12:33:13;;;;;;;6.93;5.50;;;29.90;99.90;;;;;;4932950;29;20186;-79
2021/07/25 12:35:39;;;;;;;6.10;4.90;;;29.70;99.90;;;;;;4933832;28;20233;-79
2021/07/25 12:38:15;;;;;;;5.78;4.95;;;29.70;99.90;;;;;;4934360;29;20210;-79
2021/07/25 12:40:55;;;;;;;6.40;5.40;;;29.60;99.90;;;;;;4933989;29;20193;-79
2021/07/25 12:43:26;;;;;;;6.00;5.18;;;29.60;99.90;;;;;;4934403;29;20193;-79
2021/07/25 12:45:52;;;;;;;5.68;5.00;;;29.50;99.90;;;;;;4933652;28;20245;-79
2021/07/25 12:48:21;;;;;;;5.40;4.78;;;29.50;99.90;;;;;;4942670;28;20438;-79
2021/07/25 12:53:37;;;;;;;5.50;4.53;;;29.50;99.90;;;;;;4934767;28;20186;-77
2021/07/25 12:56:05;;;;;;;4.97;4.22;;;29.40;99.90;;;;;;4934858;28;20212;-82